createdAt,value
2023-02-15T00:00:22.127Z,26.87
2023-02-15T00:02:50.827Z,26.40
2023-02-15T00:05:19.555Z,28.13
2023-02-15T00:07:49.592Z,31.43
2023-02-15T00:10:19.017Z,29.33
2023-02-15T00:12:47.598Z,32.57
2023-02-15T00:15:16.524Z,29.53
2023-02-15T00:17:45.062Z,27.87
2023-02-15T00:20:13.901Z,27.70
2023-02-15T00:22:42.588Z,33.13
2023-02-15T00:25:12.879Z,29.67
2023-02-15T00:27:41.489Z,27.53
2023-02-15T00:30:11.745Z,25.67
2023-02-15T00:32:40.189Z,28.07
2023-02-15T00:35:10.301Z,31.13
2023-02-15T00:37:41.886Z,27.37
2023-02-15T00:40:12.822Z,26.07
2023-02-15T00:42:41.386Z,34.03
2023-02-15T00:45:13.636Z,27.67
2023-02-15T00:47:42.202Z,29.07
2023-02-15T00:50:11.684Z,28.47
2023-02-15T00:52:40.752Z,26.67
2023-02-15T00:55:09.891Z,28.20
2023-02-15T00:57:40.265Z,26.70
2023-02-15T01:00:10.063Z,29.67
2023-02-15T01:02:38.540Z,27.70
2023-02-15T01:05:08.259Z,23.83
2023-02-15T01:07:36.895Z,28.03
2023-02-15T01:10:05.989Z,29.30
2023-02-15T01:12:34.582Z,26.43
2023-02-15T01:15:04.733Z,23.10
2023-02-15T01:17:34.232Z,28.87
2023-02-15T01:20:02.831Z,28.80
2023-02-15T01:22:31.754Z,28.67
2023-02-15T01:25:00.279Z,30.10
2023-02-15T01:27:31.536Z,26.40
2023-02-15T01:30:00.219Z,30.40
2023-02-15T01:32:30.549Z,33.47
2023-02-15T01:34:59.253Z,29.60
2023-02-15T01:37:27.781Z,29.30
2023-02-15T01:39:56.309Z,30.60
2023-02-15T01:42:25.957Z,31.67
2023-02-15T01:44:57.233Z,27.37
2023-02-15T01:47:30.294Z,28.87
2023-02-15T01:50:07.979Z,32.20
2023-02-15T01:52:39.409Z,25.07
2023-02-15T01:55:11.256Z,28.33
2023-02-15T01:57:40.496Z,34.07
2023-02-15T02:00:10.744Z,28.40
2023-02-15T02:02:39.992Z,34.83
2023-02-15T02:05:10.138Z,35.30
2023-02-15T02:07:43.971Z,34.67
2023-02-15T02:10:15.311Z,33.43
2023-02-15T02:12:46.445Z,34.20
2023-02-15T02:15:18.881Z,31.30
2023-02-15T02:18:06.217Z,30.90
2023-02-15T02:21:03.038Z,36.50
2023-02-15T02:23:42.825Z,32.50
2023-02-15T02:26:56.845Z,32.13
2023-02-15T02:29:57.996Z,31.63
2023-02-15T02:33:01.237Z,33.30
2023-02-15T02:35:35.614Z,31.57
2023-02-15T02:38:11.930Z,33.90
2023-02-15T02:40:51.355Z,31.07
2023-02-15T02:43:24.189Z,37.40
2023-02-15T02:45:57.712Z,28.70
2023-02-15T02:48:32.730Z,35.03
2023-02-15T02:51:01.356Z,36.17
2023-02-15T02:53:32.765Z,36.07
2023-02-15T02:56:06.972Z,35.33
2023-02-15T02:58:41.778Z,29.33
2023-02-15T03:01:15.721Z,31.53
2023-02-15T03:03:49.195Z,34.70
2023-02-15T03:06:21.366Z,33.03
2023-02-15T03:08:53.532Z,35.83
2023-02-15T03:11:22.119Z,31.73
2023-02-15T03:13:52.902Z,30.10
2023-02-15T03:16:29.732Z,28.60
2023-02-15T03:19:04.593Z,29.27
2023-02-15T03:21:37.715Z,35.67
2023-02-15T03:24:11.988Z,34.43
2023-02-15T03:26:42.522Z,31.83
2023-02-15T03:29:12.763Z,30.97
2023-02-15T03:31:47.841Z,29.97
2023-02-15T03:34:19.229Z,30.23
2023-02-15T03:36:51.233Z,32.63
2023-02-15T03:39:27.679Z,29.07
2023-02-15T03:42:01.896Z,29.23
2023-02-15T03:44:32.356Z,31.83
2023-02-15T03:47:08.520Z,31.90
2023-02-15T03:49:49.604Z,32.63
2023-02-15T03:52:18.589Z,32.80
2023-02-15T03:54:48.210Z,28.10
2023-02-15T03:57:37.844Z,27.30
2023-02-15T04:00:29.818Z,28.47
2023-02-15T04:03:11.884Z,32.10
2023-02-15T04:05:41.967Z,30.70
2023-02-15T04:08:11.055Z,32.70
2023-02-15T04:10:53.891Z,32.73
2023-02-15T04:13:22.920Z,33.70
2023-02-15T04:16:07.113Z,28.43
2023-02-15T04:18:55.223Z,28.10
2023-02-15T04:21:44.699Z,30.83
2023-02-15T04:24:31.555Z,26.90
2023-02-15T04:27:00.754Z,31.20
2023-02-15T04:29:32.321Z,29.33
2023-02-15T04:32:02.887Z,36.23
2023-02-15T04:34:31.488Z,29.70
2023-02-15T04:37:01.441Z,30.90
2023-02-15T04:39:30.062Z,28.07
2023-02-15T04:41:58.699Z,31.37
2023-02-15T04:44:27.231Z,32.87
2023-02-15T04:46:55.951Z,30.03
2023-02-15T04:49:24.500Z,30.60
2023-02-15T04:51:53.349Z,27.70
2023-02-15T04:54:23.470Z,31.50
2023-02-15T04:56:52.006Z,31.40
2023-02-15T04:59:20.709Z,33.33
2023-02-15T05:01:49.563Z,36.70
2023-02-15T05:04:18.125Z,37.27
2023-02-15T05:06:46.850Z,32.83
2023-02-15T05:09:15.724Z,35.93
2023-02-15T05:11:45.908Z,30.60
2023-02-15T05:14:16.349Z,28.10
2023-02-15T05:16:44.926Z,31.03
2023-02-15T05:19:13.804Z,32.40
2023-02-15T05:21:42.452Z,27.30
2023-02-15T05:24:24.668Z,29.03
2023-02-15T05:27:12.444Z,27.77
2023-02-15T05:29:41.005Z,30.07
2023-02-15T05:32:09.630Z,31.10
2023-02-15T05:34:38.214Z,30.27
2023-02-15T05:37:06.694Z,25.57
2023-02-15T05:39:35.188Z,31.53
2023-02-15T05:42:05.306Z,26.53
2023-02-15T05:44:34.145Z,33.63
2023-02-15T05:47:04.041Z,33.10
2023-02-15T05:49:32.873Z,27.80
2023-02-15T05:52:01.406Z,32.20
2023-02-15T05:54:30.475Z,34.83
2023-02-15T05:56:59.635Z,35.13
2023-02-15T05:59:29.581Z,35.57
2023-02-15T06:01:58.035Z,38.20
2023-02-15T06:04:26.688Z,35.10
2023-02-15T06:06:55.239Z,34.70
2023-02-15T06:09:23.663Z,35.30
2023-02-15T06:11:52.230Z,34.90
2023-02-15T06:14:21.107Z,30.57
2023-02-15T06:16:51.093Z,38.57
2023-02-15T06:19:20.151Z,31.00
2023-02-15T06:21:49.006Z,30.20
2023-02-15T06:24:17.516Z,29.93
2023-02-15T06:26:46.208Z,30.37
2023-02-15T06:29:14.857Z,27.93
2023-02-15T06:31:43.435Z,35.23
2023-02-15T06:34:13.434Z,35.83
2023-02-15T06:36:45.180Z,32.77
2023-02-15T06:39:13.934Z,30.90
2023-02-15T06:41:42.487Z,32.53
2023-02-15T06:44:11.167Z,39.37
2023-02-15T06:46:41.689Z,35.00
2023-02-15T06:49:10.331Z,34.13
2023-02-15T06:51:40.229Z,36.83
2023-02-15T06:54:08.776Z,30.07
2023-02-15T06:56:37.594Z,33.50
2023-02-15T06:59:06.063Z,33.03
2023-02-15T07:01:34.773Z,42.47
2023-02-15T07:04:03.469Z,31.97
2023-02-15T07:06:34.134Z,31.47
2023-02-15T07:09:04.345Z,32.87
2023-02-15T07:11:50.371Z,32.47
2023-02-15T07:14:21.586Z,30.17
2023-02-15T07:16:50.361Z,33.80
2023-02-15T07:19:18.830Z,36.83
2023-02-15T07:21:47.801Z,34.90
2023-02-15T07:24:19.052Z,44.93
2023-02-15T07:26:47.908Z,44.00
2023-02-15T07:29:17.020Z,39.73
2023-02-15T07:31:46.492Z,28.67
2023-02-15T07:34:15.046Z,34.50
2023-02-15T07:36:45.126Z,31.17
2023-02-15T07:39:13.788Z,41.40
2023-02-15T07:41:43.853Z,38.70
2023-02-15T07:44:15.380Z,38.33
2023-02-15T07:46:44.040Z,44.63
2023-02-15T07:49:12.986Z,48.80
2023-02-15T07:51:42.366Z,49.73
2023-02-15T07:54:11.093Z,46.80
2023-02-15T07:56:40.349Z,49.20
2023-02-15T07:59:11.361Z,53.53
2023-02-15T08:01:41.565Z,45.30
2023-02-15T08:04:12.280Z,44.93
2023-02-15T08:06:41.495Z,49.90
2023-02-15T08:09:11.974Z,59.93
2023-02-15T08:11:41.975Z,60.03
2023-02-15T08:14:13.385Z,58.97
2023-02-15T08:16:43.130Z,45.00
2023-02-15T08:19:13.995Z,48.90
2023-02-15T08:21:44.299Z,48.03
2023-02-15T08:24:14.283Z,52.70
2023-02-15T08:26:47.919Z,49.47
2023-02-15T08:29:19.715Z,42.33
2023-02-15T08:31:48.964Z,50.00
2023-02-15T08:34:20.381Z,52.03
2023-02-15T08:36:48.980Z,47.97
2023-02-15T08:39:18.314Z,56.10
2023-02-15T08:41:48.445Z,50.93
2023-02-15T08:44:20.982Z,50.10
2023-02-15T08:46:51.915Z,50.10
2023-02-15T08:49:22.254Z,49.03
2023-02-15T08:51:52.061Z,42.97
2023-02-15T08:54:23.203Z,52.03
2023-02-15T08:56:52.153Z,50.37
2023-02-15T08:59:23.381Z,51.50
2023-02-15T09:01:53.946Z,49.67
2023-02-15T09:04:24.456Z,55.60
2023-02-15T09:06:54.107Z,51.23
2023-02-15T09:09:23.239Z,53.47
2023-02-15T09:11:58.759Z,50.07
2023-02-15T09:14:29.614Z,45.83
2023-02-15T09:16:58.360Z,47.57
2023-02-15T09:19:27.585Z,48.13
2023-02-15T09:21:56.747Z,51.20
2023-02-15T09:24:25.367Z,50.00
2023-02-15T09:26:53.959Z,49.23
2023-02-15T09:29:23.799Z,45.47
2023-02-15T09:31:54.852Z,48.03
2023-02-15T09:34:24.741Z,51.63
2023-02-15T09:36:53.465Z,49.63
2023-02-15T09:39:24.856Z,45.60
2023-02-15T09:42:29.514Z,45.23
2023-02-15T09:45:18.724Z,48.17
2023-02-15T09:48:21.878Z,52.43
2023-02-15T09:51:04.732Z,58.67
2023-02-15T09:53:50.817Z,65.63
2023-02-15T09:56:29.505Z,64.07
2023-02-15T09:59:07.054Z,68.20
2023-02-15T10:01:47.583Z,57.97
2023-02-15T10:04:39.153Z,55.97
2023-02-15T10:07:18.735Z,54.57
2023-02-15T10:10:03.361Z,51.33
2023-02-15T10:12:44.676Z,47.10
2023-02-15T10:15:33.820Z,49.63
2023-02-15T10:18:23.266Z,45.10
2023-02-15T10:21:00.936Z,47.23
2023-02-15T10:23:53.574Z,41.97
2023-02-15T10:26:23.994Z,42.80
2023-02-15T10:28:56.184Z,37.97
2023-02-15T10:31:30.778Z,36.93
2023-02-15T10:34:18.614Z,41.53
2023-02-15T10:37:17.896Z,37.33
2023-02-15T10:39:57.442Z,41.43
2023-02-15T10:42:33.447Z,44.30
2023-02-15T10:45:16.064Z,42.83
2023-02-15T10:48:04.174Z,37.83
2023-02-15T10:50:47.625Z,42.67
2023-02-15T10:53:32.197Z,35.97
2023-02-15T10:56:10.904Z,39.07
2023-02-15T10:58:53.587Z,36.63
2023-02-15T11:01:28.206Z,37.50
2023-02-15T11:04:25.744Z,36.83
2023-02-15T11:06:58.905Z,39.80
2023-02-15T11:09:44.842Z,33.27
2023-02-15T11:12:20.312Z,36.33
2023-02-15T11:14:55.727Z,44.03
2023-02-15T11:17:30.816Z,40.00
2023-02-15T11:20:05.666Z,37.17
2023-02-15T11:22:36.020Z,34.87
2023-02-15T11:25:21.442Z,32.50
2023-02-15T11:27:51.934Z,29.23
2023-02-15T11:30:26.715Z,31.77
2023-02-15T11:32:58.730Z,28.53
2023-02-15T11:35:31.932Z,27.53
2023-02-15T11:38:08.746Z,29.40
2023-02-15T11:40:46.296Z,28.20
2023-02-15T11:43:20.072Z,29.63
2023-02-15T11:45:49.585Z,30.63
2023-02-15T11:48:19.003Z,29.00
2023-02-15T11:50:48.616Z,28.30
2023-02-15T11:53:19.994Z,31.63
2023-02-15T11:55:52.233Z,26.20
2023-02-15T11:58:31.280Z,25.30
2023-02-15T12:01:04.917Z,25.73
2023-02-15T12:03:48.297Z,26.37
2023-02-15T12:06:26.793Z,41.77
2023-02-15T12:09:08.457Z,24.90
2023-02-15T12:11:46.670Z,22.33
2023-02-15T12:14:17.865Z,25.33
2023-02-15T12:16:49.958Z,27.30
2023-02-15T12:19:33.550Z,25.30
2023-02-15T12:22:04.899Z,27.20
2023-02-15T12:24:38.421Z,26.27
2023-02-15T12:27:16.716Z,29.20
2023-02-15T12:29:50.543Z,25.90
2023-02-15T12:32:22.243Z,25.90
2023-02-15T12:34:53.360Z,23.67
2023-02-15T12:37:26.135Z,22.03
2023-02-15T12:39:57.272Z,22.67
2023-02-15T12:42:30.252Z,26.50
2023-02-15T12:45:02.179Z,21.63
2023-02-15T12:47:32.376Z,22.03
2023-02-15T12:50:20.069Z,18.93
2023-02-15T12:52:50.710Z,17.80
2023-02-15T12:55:26.694Z,21.20
2023-02-15T12:58:23.206Z,23.27
2023-02-15T13:01:05.866Z,19.40
2023-02-15T13:03:35.427Z,21.20
2023-02-15T13:06:08.660Z,22.87
2023-02-15T13:08:42.006Z,21.27
2023-02-15T13:11:12.974Z,19.43
2023-02-15T13:13:55.679Z,21.13
2023-02-15T13:16:34.137Z,20.53
2023-02-15T13:19:08.780Z,19.23
2023-02-15T13:21:41.885Z,22.77
2023-02-15T13:24:20.261Z,18.80
2023-02-15T13:26:51.085Z,18.03
2023-02-15T13:29:28.224Z,18.53
2023-02-15T13:31:59.873Z,17.40
2023-02-15T13:34:33.941Z,20.80
2023-02-15T13:37:10.253Z,16.10
2023-02-15T13:39:43.194Z,17.00
2023-02-15T13:42:23.457Z,17.57
2023-02-15T13:45:21.498Z,19.83
2023-02-15T13:48:00.424Z,20.60
2023-02-15T13:50:52.436Z,20.53
2023-02-15T13:53:44.321Z,24.67
2023-02-15T13:56:20.468Z,22.90
2023-02-15T13:59:11.290Z,20.70
2023-02-15T14:01:47.003Z,22.10
2023-02-15T14:04:38.737Z,21.60
2023-02-15T14:07:26.722Z,19.97
2023-02-15T14:10:13.339Z,23.07
2023-02-15T14:12:54.891Z,19.90
2023-02-15T14:15:33.536Z,18.90
2023-02-15T14:18:17.839Z,21.83
2023-02-15T14:20:57.775Z,20.27
2023-02-15T14:23:39.854Z,19.47
2023-02-15T14:26:15.207Z,20.00
2023-02-15T14:28:59.336Z,19.47
2023-02-15T14:31:37.035Z,23.50
2023-02-15T14:34:08.133Z,18.43
2023-02-15T14:36:37.746Z,19.90
2023-02-15T14:39:32.651Z,19.77
2023-02-15T14:42:09.203Z,21.40
2023-02-15T14:44:41.290Z,22.93
2023-02-15T14:47:14.880Z,21.03
2023-02-15T14:49:45.016Z,23.43
2023-02-15T14:52:14.614Z,22.63
2023-02-15T14:54:58.759Z,20.70
2023-02-15T14:57:34.746Z,20.57
2023-02-15T15:00:27.310Z,19.80
2023-02-15T15:02:56.414Z,21.70
2023-02-15T15:05:32.579Z,18.83
2023-02-15T15:08:04.861Z,17.37
2023-02-15T15:10:45.263Z,19.43
2023-02-15T15:13:58.113Z,17.80
2023-02-15T15:16:46.320Z,22.70
2023-02-15T15:19:50.786Z,19.43
2023-02-15T15:22:24.738Z,19.70
2023-02-15T15:24:57.352Z,21.80
2023-02-15T15:27:51.656Z,18.40
2023-02-15T15:31:03.099Z,19.23
2023-02-15T15:34:18.748Z,19.20
2023-02-15T15:37:21.321Z,20.67
2023-02-15T15:40:29.151Z,19.97
2023-02-15T15:43:35.139Z,26.67
2023-02-15T15:46:37.516Z,22.43
2023-02-15T15:49:12.139Z,19.83
2023-02-15T15:51:43.985Z,19.83
2023-02-15T15:54:19.144Z,21.10
2023-02-15T15:56:50.881Z,20.00
2023-02-15T15:59:26.638Z,18.67
2023-02-15T16:01:57.084Z,20.03
2023-02-15T16:04:29.973Z,22.23
2023-02-15T16:06:59.751Z,21.63
2023-02-15T16:09:31.707Z,18.73
2023-02-15T16:12:03.288Z,21.80
2023-02-15T16:14:34.412Z,18.87
2023-02-15T16:17:06.759Z,19.60
2023-02-15T16:19:38.521Z,18.87
2023-02-15T16:22:11.517Z,21.30
2023-02-15T16:25:01.869Z,26.20
2023-02-15T16:27:40.744Z,21.10
2023-02-15T16:30:24.138Z,23.03
2023-02-15T16:32:57.337Z,21.50
2023-02-15T16:35:26.606Z,23.73
2023-02-15T16:37:55.175Z,23.60
2023-02-15T16:40:48.694Z,27.77
2023-02-15T16:43:22.102Z,25.37
2023-02-15T16:45:51.426Z,25.53
2023-02-15T16:48:25.496Z,24.13
2023-02-15T16:50:57.129Z,22.80
2023-02-15T16:53:28.010Z,25.27
2023-02-15T16:55:59.441Z,22.73
2023-02-15T16:58:34.465Z,22.43
2023-02-15T17:01:04.918Z,27.40
2023-02-15T17:03:36.525Z,28.93
2023-02-15T17:06:19.486Z,31.13
2023-02-15T17:08:48.173Z,32.03
2023-02-15T17:11:21.055Z,32.40
2023-02-15T17:14:28.901Z,35.17
2023-02-15T17:17:03.954Z,47.83
2023-02-15T17:19:36.810Z,82.53
2023-02-15T17:22:07.789Z,95.83
2023-02-15T17:24:42.572Z,103.40
2023-02-15T17:27:18.368Z,105.10
2023-02-15T17:29:49.893Z,123.83
2023-02-15T17:32:22.087Z,108.87
2023-02-15T17:35:09.478Z,97.17
2023-02-15T17:37:49.271Z,105.17
2023-02-15T17:40:24.064Z,108.77
2023-02-15T17:42:53.489Z,168.47
2023-02-15T17:45:23.543Z,167.40
2023-02-15T17:47:52.885Z,163.57
2023-02-15T17:50:25.829Z,194.93
2023-02-15T17:52:55.554Z,168.20
2023-02-15T17:55:39.452Z,150.33
2023-02-15T17:58:10.562Z,265.47
2023-02-15T18:01:00.743Z,262.33
2023-02-15T18:03:57.816Z,240.27
2023-02-15T18:06:45.549Z,196.50
2023-02-15T18:09:34.751Z,156.70
2023-02-15T18:12:04.378Z,115.50
2023-02-15T18:14:33.249Z,101.23
2023-02-15T18:17:02.947Z,85.63
2023-02-15T18:19:32.376Z,67.97
2023-02-15T18:22:02.641Z,62.77
2023-02-15T18:24:31.445Z,56.37
2023-02-15T18:27:01.038Z,53.13
2023-02-15T18:29:30.401Z,50.93
2023-02-15T18:32:04.042Z,52.10
2023-02-15T18:34:36.041Z,48.83
2023-02-15T18:37:10.153Z,47.40
2023-02-15T18:39:42.190Z,44.40
2023-02-15T18:42:22.101Z,52.43
2023-02-15T18:44:53.816Z,48.23
2023-02-15T18:47:23.074Z,43.60
2023-02-15T18:49:52.936Z,43.37
2023-02-15T18:52:26.475Z,41.03
2023-02-15T18:55:00.180Z,47.27
2023-02-15T18:57:30.638Z,57.53
2023-02-15T19:00:03.700Z,57.77
2023-02-15T19:02:32.902Z,53.27
2023-02-15T19:05:11.887Z,38.83
2023-02-15T19:07:45.699Z,36.80
2023-02-15T19:10:18.957Z,36.83
2023-02-15T19:12:48.741Z,35.17
2023-02-15T19:15:19.104Z,30.40
2023-02-15T19:17:48.215Z,31.77
2023-02-15T19:20:24.115Z,30.47
2023-02-15T19:22:57.024Z,38.90
2023-02-15T19:25:28.866Z,36.03
2023-02-15T19:27:58.936Z,40.33
2023-02-15T19:30:30.180Z,41.77
2023-02-15T19:32:59.761Z,47.77
2023-02-15T19:35:31.812Z,55.77
2023-02-15T19:38:06.546Z,55.17
2023-02-15T19:40:37.174Z,52.20
2023-02-15T19:43:12.078Z,51.00
2023-02-15T19:45:41.097Z,45.20
2023-02-15T19:48:15.019Z,36.53
2023-02-15T19:50:46.451Z,35.03
2023-02-15T19:53:24.882Z,31.80
2023-02-15T19:55:54.521Z,32.10
2023-02-15T19:58:25.327Z,30.67
2023-02-15T20:00:54.754Z,28.97
2023-02-15T20:03:24.283Z,27.90
2023-02-15T20:05:53.262Z,28.00
2023-02-15T20:08:25.329Z,30.57
2023-02-15T20:10:54.369Z,28.07
2023-02-15T20:13:24.069Z,29.00
2023-02-15T20:15:53.716Z,30.63
2023-02-15T20:18:23.028Z,31.43
2023-02-15T20:20:54.823Z,30.00
2023-02-15T20:23:30.702Z,30.03
2023-02-15T20:26:01.378Z,30.60
2023-02-15T20:28:33.723Z,35.37
2023-02-15T20:31:04.211Z,39.43
2023-02-15T20:33:34.262Z,45.20
2023-02-15T20:36:06.416Z,37.30
2023-02-15T20:38:37.246Z,43.03
2023-02-15T20:41:24.214Z,42.30
2023-02-15T20:43:53.917Z,47.33
2023-02-15T20:46:23.333Z,50.07
2023-02-15T20:48:52.329Z,51.43
2023-02-15T20:51:23.413Z,46.70
2023-02-15T20:53:54.370Z,50.50
2023-02-15T20:56:26.102Z,49.80
2023-02-15T20:58:58.700Z,45.60
2023-02-15T21:01:27.852Z,39.53
2023-02-15T21:03:56.817Z,40.07
2023-02-15T21:06:25.970Z,38.60
2023-02-15T21:08:56.948Z,37.50
2023-02-15T21:11:25.986Z,33.97
2023-02-15T21:13:55.692Z,34.33
2023-02-15T21:16:24.795Z,33.33
2023-02-15T21:18:53.840Z,33.10
2023-02-15T21:21:28.193Z,32.67
2023-02-15T21:23:58.749Z,32.43
2023-02-15T21:26:27.640Z,35.07
2023-02-15T21:28:57.028Z,34.30
2023-02-15T21:31:29.021Z,36.13
2023-02-15T21:33:58.036Z,36.97
2023-02-15T21:36:27.419Z,36.00
2023-02-15T21:38:58.488Z,36.10
2023-02-15T21:41:46.790Z,35.27
2023-02-15T21:44:38.496Z,35.57
2023-02-15T21:47:25.232Z,31.90
2023-02-15T21:49:55.116Z,32.10
2023-02-15T21:52:24.533Z,31.67
2023-02-15T21:54:54.868Z,31.93
2023-02-15T21:57:23.641Z,29.30
2023-02-15T21:59:52.421Z,29.67
2023-02-15T22:02:29.875Z,30.17
2023-02-15T22:04:59.756Z,32.50
2023-02-15T22:07:28.607Z,32.30
2023-02-15T22:09:58.751Z,32.60
2023-02-15T22:12:27.365Z,35.47
2023-02-15T22:14:56.401Z,36.23
2023-02-15T22:17:29.855Z,33.63
2023-02-15T22:19:59.362Z,36.30
2023-02-15T22:22:30.265Z,35.50
2023-02-15T22:25:03.399Z,32.53
2023-02-15T22:27:36.606Z,32.80
2023-02-15T22:30:06.566Z,32.77
2023-02-15T22:32:35.614Z,34.90
2023-02-15T22:35:04.620Z,36.13
2023-02-15T22:37:33.464Z,39.17
2023-02-15T22:40:03.685Z,44.03
2023-02-15T22:42:32.630Z,41.50
2023-02-15T22:45:01.424Z,43.50
2023-02-15T22:47:32.815Z,52.67
2023-02-15T22:50:02.240Z,48.87
2023-02-15T22:52:30.814Z,45.23
2023-02-15T22:54:59.406Z,40.43
2023-02-15T22:57:32.543Z,36.27
2023-02-15T23:00:01.931Z,42.37
2023-02-15T23:02:30.535Z,39.57
2023-02-15T23:04:59.256Z,32.83
2023-02-15T23:07:31.654Z,34.87
2023-02-15T23:10:00.325Z,36.93
2023-02-15T23:12:53.146Z,37.57
2023-02-15T23:15:21.778Z,43.50
2023-02-15T23:17:50.383Z,41.53
2023-02-15T23:20:19.180Z,41.33
2023-02-15T23:22:48.346Z,38.67
2023-02-15T23:25:19.226Z,37.07
2023-02-15T23:27:59.213Z,37.20
2023-02-15T23:30:28.739Z,36.60
2023-02-15T23:32:58.894Z,36.83
2023-02-15T23:35:27.574Z,37.40
2023-02-15T23:37:56.294Z,38.97
2023-02-15T23:40:42.665Z,39.03
2023-02-15T23:43:24.452Z,39.97
2023-02-15T23:45:53.160Z,40.93
2023-02-15T23:48:31.905Z,38.93
2023-02-15T23:51:01.685Z,37.07
2023-02-15T23:53:32.606Z,37.87
2023-02-15T23:56:01.917Z,37.40
2023-02-15T23:58:36.949Z,36.90
